Cali, Colombia

5:45 PM COT on September 02, 2015 (GMT -0500)
Alfonso Bonilla Aragon International | | Change Station
CLOSE
Current Station
Airport
Location: Cali,
Elevation: 3179 ft
Nearby Weather Stations

Elev 3179 ft 3.54 °N, 76.38 °W | Updated 45 minutes ago

Mostly Cloudy
Mostly Cloudy
86 °F
Feels Like 88 °F
N
14
Wind Variable Wind from NW

Today
High -- | Low -- °F
--% Chance of Precip.
Yesterday
High -- | Low -- °F
Precip. -- in
5:59 AM 6:10 PM
Waning Gibbous, 76% visible
Pressure 29.85 in
Visibility 6.2 miles
Clouds Few 4000 ft
Mostly Cloudy 10000 ft
Heat Index 88 °F
Dew Point 66 °F
Humidity 51%
Rainfall 0.00 in
Snow Depth Not available.
UV 1 out of 12
Pollen Not available.
Air Quality Not available.
Flu Activity Not available.
METAR SKCL 022200Z 32012KT 9999 VCSH FEW040 BKN100 30/19 A2985 RMK VCSH/E/NE
Pressure 29.85 in
Visibility 6.2 miles
Clouds Few 4000 ft
Mostly Cloudy 10000 ft
Heat Index 88 °F
Dew Point 66 °F
Humidity 51%
Rainfall 0.00 in
Snow Depth Not available.
UV 1 out of 12
Pollen Not available.
Air Quality Not available.
Flu Activity Not available.
METAR SKCL 022200Z 32012KT 9999 VCSH FEW040 BKN100 30/19 A2985 RMK VCSH/E/NE

10-Day Weather Forecast

×

Almanac

Astronomy

Sep. 02, 2015 Rise Set
Actual Time
Civil Twilight
Nautical Twilight
Astronomical Twilight
Moon
Length of Visible Light
Length of Day
Tomorrow will be .
, % of the Moon is Illuminated

Today's Extremes

Country Highs Country Lows

Community

WunderPhotos

Upload Photos

1,851,822 photos uploaded!

WunderBlogs® & News

Nearby

Air Quality

  Air Quality AQ Index Pollutant
Not available.

Snow Depth

Station Depth Elevation

Earthquake Activity

City Distance Mag. Time & Date
Minimum magnitude displayed is 2.5.

Coastal Water Temperatures

Place Temperature

Stations

Nearby Weather Stations

Station Location Temp. Windchill Dew Point Humidity Wind Precip. Elev Updated Type